NY Terminal Aviation Weather Discussion (AFD) - Prepared: 1025 PM EDT SAT OCT 25 2014
A STRONG COLD FRONTAL PASSAGE TONIGHT...WITH HIGH PRESSURE
BUILDING TO THE SW ON SUNDAY. VFR BUT WINDY CONDS. 

SW WINDS VEER TO W BTWN 03-06Z TONIGHT WITH FROPA...THEN WNW
TOWARDS DAYBREAK. GUSTY AT METRO AND COASTAL TERMINALS.

ISOLATED SHRA ACTIVITY POSSIBLE WITH FRONTAL PASSAGE AND THEN
TO AWARDS DAYBREAK WITH UPPER DISTURBANCE.

WNW WINDS 15 TO 20 KT WITH GUSTS AROUND 30 KT ON SUNDAY.
WINDS COULD PEAK 20-25 WITH GUSTS TO 35 KT SUN AFT FOR METRO
TERMINALS. WIND DIR EXPECTED TO RANGE BTWN 300 AND 320
MAGNETIC ON SUN...GENERALLY JUST LEFT OF 310 MAG FOR KJFK/KEWR AND
JUST RIGHT FOR KLGA.

CIGS COULD BECOME BROKEN FOR A PERIOD SUNDAY LATE MORNING AND
DURING THE AFTERNOON.

WINDS AND GUSTS GRADUALLY SUBSIDE SUN EVE.

5 Day General Aviation Outlook:

.OUTLOOK FOR 00Z MONDAY THROUGH THURSDAY.
.SUN NIGHT-TUE...VFR. NW WINDS G25KT SUN EVE...HIGHEST NYC
METRO...SUBSIDING SUN NIGHT.
.WED...MVFR OR LOWER POSSIBLE WITH CHANCE SHRA.
.THU...VFR.


NY Metro Terminal Aviation Weather Summary: (Explanation of Color Coding)
NOTE: All Wind Directions are TRUE (add 13 degrees for magnetic directions). Tail and Crosswind Calculations do account for the magnetic deviation of runways.

Click on the Airport Below for Specific Information at that Terminal

TAF Overview JFK TAF LGA TAF EWR TAF TEB TAF HPN TAF ISP TAF

Jump to AirSpace Impacts Section Condensed "lite" version of SPA page
**************************************************************************************
KJFK Terminal Weather: (Wind Directions Are True, Except Where Noted, ADD 13 degrees for Magnetic)

5MIN KJFK 260335Z 24014KT 10SM CLR 16/08 A2959 320 62 
     500 260/14 RMK AO2
5MIN KJFK 260330Z 24013KT 10SM CLR 16/08 A2959 320 62 
     500 260/13 RMK AO2
********************************************
****        MAGNETIC DIRECTIONS         ****
********************************************
KJFK 10/26/2014 03:45:45 GMT 250 12 KT
KJFK 10/26/2014 03:43:45 GMT 250 12 KT
KJFK 10/26/2014 03:41:45 GMT 250 13 KT
KJFK 10/26/2014 03:39:45 GMT 250 12 KT
KJFK 10/26/2014 03:37:45 GMT 240 13 KT
KJFK 10/26/2014 03:35:45 GMT 240 13 KT
KJFK 10/26/2014 03:33:45 GMT 250 14 G20KT
KJFK 10/26/2014 03:31:45 GMT 250 14 G20KT
KJFK 10/26/2014 03:29:45 GMT 250 13 G20KT
KJFK 10/26/2014 03:27:45 GMT 250 13 G20KT
SAUS70 KJFK 260300 RRQ
METAR KJFK 260251Z 23016KT 10SM FEW250 16/08 A2961 RMK AO2 SLP025
     T01610083 57017
FTNA35 KJFK 260212 RRA
KJFK 260204Z 2602/2706 23014G20KT P6SM SCT050
     FM260400 27014G20KT P6SM BKN050
     FM260900 29014G22KT P6SM SCT050
     FM261500 29022G33KT P6SM BKN050
     FM262300 29016G26KT P6SM FEW050
     FM270200 29014KT P6SM FEW050
KJFK Forecaster Comments Not Available at This Time
jfk

JFK Hourly Forecast Temperature (C)

JFK Hourly TMPS
**************************************************************************************
KLGA Terminal Weather: (Wind Directions Are True, Except Where Noted, ADD 13 degrees for Magnetic)

5MIN KLGA 260335Z 22010G20KT 10SM FEW100 17/07 A2956 
     360 51 700 230/10G20 RMK AO2 PK WND 24027/0252
5MIN KLGA 260330Z 23015G21KT 10SM CLR 17/07 A2956 360 
     49 700 240/15G21 RMK AO2 PK WND 24027/0252
********************************************
****        MAGNETIC DIRECTIONS         ****
********************************************
KLGA 10/26/2014 03:46:00 GMT 240 12 G16KT
KLGA 10/26/2014 03:44:00 GMT 240 13 KT
KLGA 10/26/2014 03:41:59 GMT 240 15 KT
KLGA 10/26/2014 03:39:59 GMT 240 14 KT
KLGA 10/26/2014 03:37:59 GMT 240 13 KT
KLGA 10/26/2014 03:35:59 GMT 240 14 KT
KLGA 10/26/2014 03:33:59 GMT 250 15 KT
KLGA 10/26/2014 03:32:00 GMT 250 17 KT
KLGA 10/26/2014 03:29:59 GMT 260 16 KT
KLGA 10/26/2014 03:27:58 GMT 250 16 KT
SAUS70 KLGA 260300
METAR KLGA 260251Z 24015G24KT 10SM FEW250 17/07 A2958 RMK AO2 SLP016
     T01720067 56019
FTUS80 KLGA 260206 AAB
KLGA 260204Z 2602/2624 24014G20KT P6SM SCT050
     FM260400 28014G20KT P6SM BKN050
     FM260900 31014G22KT P6SM SCT050
     FM261500 31022G32KT P6SM BKN050
     FM262300 29016G26KT P6SM FEW050
KLGA Forecaster Comments Not Available at This Time
lga


**************************************************************************************

KEWR Terminal Weather: (Wind Directions Are True, Except Where Noted, ADD 13 degrees for Magnetic)

5MIN KEWR 260335Z 22008KT 10SM FEW070 16/07 A2958 340 
     55 600 240/08 RMK AO2 PK WND 26031/0307
5MIN KEWR 260330Z 23009KT 10SM FEW070 16/07 A2958 340 
     55 600 240/09 RMK AO2 PK WND 26031/0307
********************************************
****        MAGNETIC DIRECTIONS         ****
********************************************
KEWR 10/26/2014 03:45:30 GMT 250 09 KT
KEWR 10/26/2014 03:43:30 GMT 240 09 KT
KEWR 10/26/2014 03:41:30 GMT 250 09 KT
KEWR 10/26/2014 03:39:30 GMT 250 09 KT
KEWR 10/26/2014 03:37:30 GMT 250 09 KT
KEWR 10/26/2014 03:35:30 GMT 260 10 KT
KEWR 10/26/2014 03:33:30 GMT 260 10 KT
KEWR 10/26/2014 03:31:30 GMT 260 10 KT
KEWR 10/26/2014 03:29:30 GMT 260 12 KT
KEWR 10/26/2014 03:27:30 GMT 260 11 KT
SAUS70 KEWR 260300
METAR KEWR 260251Z 23012KT 10SM SCT070 16/07 A2960 RMK AO2 SLP022
     T01610072 56016
FTUS31 KEWR 260206 AAA
KEWR 260204Z 2602/2706 24012G18KT P6SM SCT050
     FM260400 27012G18KT P6SM BKN050
     FM260900 28012G20KT P6SM SCT050
     FM261500 29020G30KT P6SM BKN050
     FM262300 29015G25KT P6SM FEW050
     FM270200 29012KT P6SM FEW050
KEWR Forecaster Comments Not Available at This Time
ewr
Afternoon EWR Haze Potential Forecast: KEWR Haze Forecast Not Available at This Time
IS NOT AVAILABLE AT THIS TIME


******************************************************************************

KTEB Terminal Weather:
SAUS80 KTEB 260300
METAR KTEB 260251Z 22010KT 10SM FEW100 16/07 A2958 RMK AO2 SLP015
     T01560067 56017
FTUS80 KTEB 260206 AAB
KTEB 260204Z 2602/2624 24008KT P6SM SCT050
     FM260400 28008KT P6SM BKN050
     FM260900 30010G16KT P6SM SCT050
     FM261500 30018G28KT P6SM BKN050
     FM262200 30014G22KT P6SM FEW050
KTEB Forecaster Comments Not Available at This Time
teb

 


**************************************************************************************

KHPN Terminal Weather:
SAUS70 KHPN 260300 RRF
METAR KHPN 260256Z VRB04KT 10SM CLR 16/06 A2957 RMK AO2 SLP011 T01560061
     56017
FTUS41 KHPN 260206 AAA
KHPN 260204Z 2602/2624 25007KT P6SM SCT050
     FM260400 28007KT P6SM BKN050
     FM260900 30010G16KT P6SM SCT050
     FM261500 30016G28KT P6SM BKN050
     FM262200 30014G22KT P6SM FEW050 AMD NOT SKED
KHPN Forecaster Comments Not Available at This Time
HPN


******************************************************************************

KISP Terminal Weather:
SAUS70 KISP 260300 RRF
METAR KISP 260256Z 23009G18KT 10SM FEW260 16/09 A2958 RMK AO2 SLP015
     T01560089 58016
FTUS80 KISP 260206 AAB
KISP 260204Z 2602/2624 23012G18KT P6SM SCT050
     FM260500 27012KT P6SM BKN050
     FM260900 29012G18KT P6SM SCT050
     FM261500 30018G30KT P6SM SCT050
     FM262200 30014G22KT P6SM FEW050
KISP Forecaster Comments Not Available at This Time
ISP

 


ZNY SWAP Season Information

(ZNY SWAP STATEMENT) (Click for PDF File) (ZNY BRIEFING) (Click for PDF File)

*******************************************************
***        NY AIR ROUTE TRAFFIC CONTROL CENTER      ***
***                DAILY SWAP STATEMENT             ***
*******************************************************
NY AIR ROUTE TRAFFIC CONTROL CENTER
DAILY SWAP STATEMENT
WEDNESDAY OCTOBER 22, 2014
SWAP IS POSSIBLE AFT 15Z.
MOSTLY -SHRA WILL CONTINUE ACROSS ZNY TODAY. ALTHOUGH TSRA WILL 
MOSTLY REMAIN OFFSHORE...OCNL EMBD TS WITH TOPS TO FL340 ARE PSBL IN 
NY/PHL TRACON AIRSPACE THRU THE AFTN.

ADDT'L INFO:
AZEZU-PAEPR-HANRI(L453-M201):  IMPACTS PSBL L453 BTN AZEZU AND 
PAEPR. 
DITCH: BRIEF IMPACTS PSBL.
EAST GATES: BRIEF IMPACTS PSBL.
TOMORROW MORNINGS SWAP OUTLOOK:  SWAP IS NOT EXPECTED.
$$
MMD


N90 AirSpace Impacts

N90 ZNY Gate TSTM Forecast    SWAP Day One Forecast

SWAP Day One Forecast    SWAP Day Two Outlook

National Collaborative Convective Forecast Product (CCFP) Forecasts (Mar-Oct)


Vertical Wind Profile
Untitled Document